Impacts TAF Board INFO
FOR SITUATIONAL AWARENESS. NOT TO BE USED FOR FLIGHT PLANNING PURPOSES.
IDs:

KORD - Chicago/O'Hare Intl, IL, US

Issued at 1229 UTC 18 Dec 2017
Updated at 1230 UTC 18 Dec 2017
Potential Impact None Slight Moderate High
Time<<19/13Z 19/14Z 19/15Z 19/16Z 19/17Z 19/18Z 19/19Z 19/20Z 19/21Z 19/22Z 19/23Z 20/00Z 20/01Z
Type PRVL PRVL PRVL PRVL PRVL
VIS >6 >6 >6 >6 >6
CIG 250 250 250 250 250
Cover BKN BKN BKN BKN BKN
FltCat VFR VFR VFR VFR VFR
WX -- -- -- -- --
WDir 260 260 260 260 260
WSpd 12 12 12 12 12
WGst -- -- -- -- --

Raw TAF
KORD 181229Z 1812/1918 25010KT P6SM BKN007 OVC015
  FM181700 24011KT P6SM BKN015
  FM190000 22012KT P6SM SCT015 BKN250 WS020/27045KT
  FM191200 26012KT P6SM BKN250


METAR Board
Radar Display
Forecast Discussion

FOR SITUATIONAL AWARENESS. NOT TO BE USED FOR FLIGHT PLANNING PURPOSES.